Time;durP1;ratioP1;P1;durP2;ratioP2;P2;SDS_P1;SDS_P2;PMS_P1;PMS_P2;Temp;Humidity;BMP_temperature;BMP_pressure;BME280_temperature;BME280_humidity;BME280_pressure;Samples;Min_cycle;Max_cycle;Signal;HPM_P1;HPM_P2
2023/08/11 00:00:09;;;;;;;13.20;8.60;;;;;;;;;;5013835;28;20053;-77
2023/08/11 00:02:57;;;;;;;13.13;7.57;;;;;;;;;;5029511;28;20484;-79
2023/08/11 00:05:43;;;;;;;9.93;6.13;;;;;;;;;;5028931;28;20488;-80
2023/08/11 00:08:29;;;;;;;10.30;6.78;;;;;;;;;;5028973;28;20045;-79
2023/08/11 00:11:14;;;;;;;16.75;7.32;;;;;;;;;;5020490;28;20444;-77
2023/08/11 00:14:02;;;;;;;13.50;7.47;;;;;;;;;;5028658;28;20048;-79
2023/08/11 00:16:47;;;;;;;15.15;8.93;;;;;;;;;;5029138;28;20427;-79
2023/08/11 00:19:33;;;;;;;15.23;9.10;;;;;;;;;;5028096;28;20053;-78
2023/08/11 00:22:18;;;;;;;17.70;9.60;;;;;;;;;;5028189;28;20400;-77
2023/08/11 00:25:04;;;;;;;22.52;9.88;;;;;;;;;;5029032;28;20041;-78
2023/08/11 00:27:50;;;;;;;14.75;9.88;;;;;;;;;;5028201;28;20045;-78
2023/08/11 00:30:35;;;;;;;21.10;10.23;;;;;;;;;;5027385;28;20049;-76
2023/08/11 00:33:24;;;;;;;17.13;10.68;;;;;;;;;;5028689;28;20049;-79
2023/08/11 00:36:09;;;;;;;17.40;10.73;;;;;;;;;;5028385;28;20071;-79
2023/08/11 00:39:00;;;;;;;22.63;10.80;;;;;;;;;;5027555;28;20487;-81
2023/08/11 00:41:45;;;;;;;15.43;9.77;;;;;;;;;;5027871;28;20547;-77
2023/08/11 00:44:32;;;;;;;9.55;6.95;;;;;;;;;;5019468;28;20451;-78
2023/08/11 00:47:17;;;;;;;11.57;6.90;;;;;;;;;;5028270;28;20045;-79
2023/08/11 00:50:03;;;;;;;8.23;6.85;;;;;;;;;;5013221;28;20407;-79
2023/08/11 00:52:50;;;;;;;10.60;5.95;;;;;;;;;;5019377;28;20046;-77
2023/08/11 00:55:35;;;;;;;11.32;6.30;;;;;;;;;;5027328;28;20046;-77
2023/08/11 00:58:21;;;;;;;13.27;7.13;;;;;;;;;;5026731;28;20042;-77
2023/08/11 01:01:06;;;;;;;11.00;7.68;;;;;;;;;;5027617;28;20041;-79
2023/08/11 01:03:52;;;;;;;9.35;7.03;;;;;;;;;;5019548;28;20480;-78
2023/08/11 01:07:07;;;;;;;11.57;7.00;;;;;;;;;;5026655;28;20049;-78
2023/08/11 01:10:12;;;;;;;11.30;6.57;;;;;;;;;;5034358;28;20045;-78
2023/08/11 01:13:17;;;;;;;11.70;5.80;;;;;;;;;;5028040;28;20049;-78
2023/08/11 01:16:04;;;;;;;7.57;5.95;;;;;;;;;;5027591;28;20046;-78
2023/08/11 01:18:50;;;;;;;8.52;6.35;;;;;;;;;;5027529;28;20050;-79
2023/08/11 01:21:39;;;;;;;10.38;6.63;;;;;;;;;;5023321;28;20489;-78
2023/08/11 01:24:25;;;;;;;12.68;6.57;;;;;;;;;;5030531;28;20046;-76
2023/08/11 01:27:11;;;;;;;9.32;7.18;;;;;;;;;;5023592;28;20057;-76
2023/08/11 01:29:57;;;;;;;12.98;7.82;;;;;;;;;;5031097;28;20815;-76
2023/08/11 01:32:44;;;;;;;13.40;7.43;;;;;;;;;;5027931;28;20083;-81
2023/08/11 01:35:29;;;;;;;9.93;6.22;;;;;;;;;;5022993;28;20045;-77
2023/08/11 01:38:15;;;;;;;12.40;6.40;;;;;;;;;;5030201;28;20049;-78
2023/08/11 01:41:00;;;;;;;10.23;6.00;;;;;;;;;;5025888;28;20045;-80
2023/08/11 01:43:48;;;;;;;9.52;5.88;;;;;;;;;;5027189;28;20477;-78
2023/08/11 01:46:34;;;;;;;9.65;6.10;;;;;;;;;;5032814;28;20404;-78
2023/08/11 01:49:24;;;;;;;6.22;5.63;;;;;;;;;;5027006;28;20049;-78
2023/08/11 01:52:09;;;;;;;8.38;5.65;;;;;;;;;;5026779;28;20045;-77
2023/08/11 01:54:54;;;;;;;8.65;5.63;;;;;;;;;;5027150;28;20042;-80
2023/08/11 01:57:40;;;;;;;7.72;5.78;;;;;;;;;;5025754;28;20408;-79
2023/08/11 02:00:27;;;;;;;9.43;6.75;;;;;;;;;;5021594;28;20045;-80
2023/08/11 02:03:12;;;;;;;7.95;6.72;;;;;;;;;;5011938;28;20057;-76
2023/08/11 02:05:59;;;;;;;10.73;6.40;;;;;;;;;;5011626;28;20488;-80
2023/08/11 02:08:44;;;;;;;8.68;6.32;;;;;;;;;;5026888;28;20048;-78
2023/08/11 02:11:30;;;;;;;9.35;6.25;;;;;;;;;;5026447;28;20057;-77
2023/08/11 02:14:15;;;;;;;10.15;6.30;;;;;;;;;;5018001;28;20049;-80
2023/08/11 02:17:01;;;;;;;9.98;6.53;;;;;;;;;;5025606;28;20045;-79
2023/08/11 02:19:46;;;;;;;12.35;6.43;;;;;;;;;;5025446;28;20053;-77
2023/08/11 02:22:32;;;;;;;13.57;10.20;;;;;;;;;;5026677;28;20041;-77
2023/08/11 02:25:17;;;;;;;22.80;15.63;;;;;;;;;;5024979;28;20037;-78
2023/08/11 02:28:04;;;;;;;32.60;23.08;;;;;;;;;;5016560;28;20041;-78
2023/08/11 02:30:50;;;;;;;31.45;21.48;;;;;;;;;;5031288;28;20403;-78
2023/08/11 02:33:35;;;;;;;30.10;18.30;;;;;;;;;;5025134;28;20037;-79
2023/08/11 02:36:21;;;;;;;18.75;11.20;;;;;;;;;;5023937;28;20657;-79
2023/08/11 02:39:08;;;;;;;14.23;9.55;;;;;;;;;;5025456;28;20045;-79
2023/08/11 02:41:55;;;;;;;16.38;9.10;;;;;;;;;;5017454;28;20045;-77
2023/08/11 02:44:40;;;;;;;9.43;6.97;;;;;;;;;;5017054;28;20045;-77
2023/08/11 02:47:25;;;;;;;9.48;7.20;;;;;;;;;;5010630;28;20408;-79
2023/08/11 02:50:11;;;;;;;10.85;7.05;;;;;;;;;;5017621;28;20049;-77
2023/08/11 02:52:56;;;;;;;9.02;7.50;;;;;;;;;;5024920;28;20061;-77
2023/08/11 02:55:41;;;;;;;9.25;6.68;;;;;;;;;;5017593;28;20770;-79
2023/08/11 02:58:28;;;;;;;12.15;6.07;;;;;;;;;;5017373;28;20045;-80
2023/08/11 03:01:14;;;;;;;9.05;6.57;;;;;;;;;;5017962;28;20488;-79
2023/08/11 03:03:59;;;;;;;9.45;6.43;;;;;;;;;;5025308;28;20041;-76
2023/08/11 03:06:47;;;;;;;10.20;6.10;;;;;;;;;;5017454;28;20046;-76
2023/08/11 03:09:33;;;;;;;6.65;5.55;;;;;;;;;;5020497;28;20400;-78
2023/08/11 03:12:19;;;;;;;8.05;5.63;;;;;;;;;;5021426;28;20049;-77
2023/08/11 03:15:05;;;;;;;12.73;6.25;;;;;;;;;;5020812;28;20045;-77
2023/08/11 03:17:52;;;;;;;6.97;6.05;;;;;;;;;;5029828;28;20476;-79
2023/08/11 03:20:38;;;;;;;11.25;5.88;;;;;;;;;;5021370;28;20045;-79
2023/08/11 03:23:23;;;;;;;7.55;6.10;;;;;;;;;;5035103;28;20228;-80
2023/08/11 03:26:09;;;;;;;7.80;6.30;;;;;;;;;;5021268;28;20408;-79
2023/08/11 03:28:55;;;;;;;8.93;6.05;;;;;;;;;;5017700;28;20045;-78
2023/08/11 03:31:42;;;;;;;7.97;5.95;;;;;;;;;;5034846;28;20053;-78
2023/08/11 03:34:29;;;;;;;8.18;5.97;;;;;;;;;;5021500;28;20049;-77
2023/08/11 03:37:14;;;;;;;8.27;6.15;;;;;;;;;;5020994;28;20400;-77
2023/08/11 03:40:00;;;;;;;11.07;6.55;;;;;;;;;;5020769;28;20049;-76
2023/08/11 03:42:45;;;;;;;7.28;6.32;;;;;;;;;;5020382;28;20049;-78
2023/08/11 03:45:31;;;;;;;9.85;6.53;;;;;;;;;;5028390;28;20416;-79
2023/08/11 03:48:17;;;;;;;8.77;6.25;;;;;;;;;;5029510;28;20049;-79
2023/08/11 03:51:03;;;;;;;11.23;6.60;;;;;;;;;;5028731;28;20400;-76
2023/08/11 03:53:48;;;;;;;7.90;6.45;;;;;;;;;;5020870;28;20041;-79
2023/08/11 03:56:34;;;;;;;8.77;6.00;;;;;;;;;;5020106;28;20493;-78
2023/08/11 03:59:21;;;;;;;6.88;5.72;;;;;;;;;;5026154;28;20045;-77
2023/08/11 04:02:06;;;;;;;7.00;5.60;;;;;;;;;;5020548;28;20489;-79
2023/08/11 04:04:51;;;;;;;7.10;5.78;;;;;;;;;;5020130;28;20484;-78
2023/08/11 04:07:37;;;;;;;9.70;6.35;;;;;;;;;;5028042;28;20053;-79
2023/08/11 04:10:24;;;;;;;10.40;6.22;;;;;;;;;;5028867;28;20037;-77
2023/08/11 04:13:10;;;;;;;10.73;6.40;;;;;;;;;;5029036;28;20053;-77
2023/08/11 04:15:55;;;;;;;6.88;5.90;;;;;;;;;;5019839;28;20041;-78
2023/08/11 04:18:40;;;;;;;12.57;7.63;;;;;;;;;;5016528;28;20049;-78
2023/08/11 04:21:25;;;;;;;34.60;21.77;;;;;;;;;;5028772;28;20776;-78
2023/08/11 04:24:11;;;;;;;13.07;8.82;;;;;;;;;;5028917;28;20046;-78
2023/08/11 04:26:56;;;;;;;9.60;6.60;;;;;;;;;;5028955;28;20484;-77
2023/08/11 04:29:42;;;;;;;9.75;6.20;;;;;;;;;;5019852;28;20049;-78
2023/08/11 04:32:27;;;;;;;7.40;5.15;;;;;;;;;;5020005;28;20476;-78
2023/08/11 04:35:12;;;;;;;7.75;5.63;;;;;;;;;;5019978;28;20049;-78
2023/08/11 04:37:59;;;;;;;7.20;5.40;;;;;;;;;;5020412;28;20060;-77
2023/08/11 04:40:51;;;;;;;7.60;5.05;;;;;;;;;;5026807;28;20424;-76
2023/08/11 04:43:36;;;;;;;6.93;4.88;;;;;;;;;;5026902;28;20041;-77
2023/08/11 04:46:23;;;;;;;10.80;5.40;;;;;;;;;;5027955;28;20467;-78
2023/08/11 04:49:08;;;;;;;8.18;5.30;;;;;;;;;;5028097;28;20049;-78
2023/08/11 04:51:54;;;;;;;9.90;4.80;;;;;;;;;;5028601;28;20053;-79
2023/08/11 04:54:39;;;;;;;7.85;4.75;;;;;;;;;;5019665;28;20392;-77
2023/08/11 04:57:25;;;;;;;7.70;5.07;;;;;;;;;;5016278;28;20045;-80
2023/08/11 05:00:14;;;;;;;10.70;5.15;;;;;;;;;;5016045;28;20049;-80
2023/08/11 05:02:59;;;;;;;6.43;4.70;;;;;;;;;;5027490;28;20045;-80
2023/08/11 05:05:45;;;;;;;7.20;4.90;;;;;;;;;;5018092;28;20038;-77
2023/08/11 05:08:31;;;;;;;8.40;4.57;;;;;;;;;;5018471;28;20046;-80
2023/08/11 05:11:16;;;;;;;7.15;4.80;;;;;;;;;;5028078;28;20037;-79
2023/08/11 05:14:02;;;;;;;6.38;4.30;;;;;;;;;;5027832;28;20046;-80
2023/08/11 05:16:47;;;;;;;8.43;4.03;;;;;;;;;;5020381;28;20041;-78
2023/08/11 05:19:32;;;;;;;7.68;3.78;;;;;;;;;;5027661;28;20041;-79
2023/08/11 05:22:18;;;;;;;4.75;3.83;;;;;;;;;;5027482;28;20299;-80
2023/08/11 05:25:04;;;;;;;5.32;3.85;;;;;;;;;;5027501;28;20038;-80
2023/08/11 05:27:50;;;;;;;10.95;4.40;;;;;;;;;;5033331;28;20053;-79
2023/08/11 05:30:37;;;;;;;7.60;4.30;;;;;;;;;;5027337;28;20042;-79
2023/08/11 05:33:24;;;;;;;8.10;4.70;;;;;;;;;;5033333;28;20052;-79
2023/08/11 05:36:10;;;;;;;8.52;4.30;;;;;;;;;;5026055;28;20037;-79
2023/08/11 05:38:56;;;;;;;5.57;4.50;;;;;;;;;;5026160;28;20046;-79
2023/08/11 05:41:41;;;;;;;13.05;5.30;;;;;;;;;;5026820;28;20041;-79
2023/08/11 05:44:27;;;;;;;7.60;4.05;;;;;;;;;;5026147;28;20045;-77
2023/08/11 05:47:12;;;;;;;7.53;4.68;;;;;;;;;;5027218;28;20070;-78
2023/08/11 05:49:58;;;;;;;7.32;4.10;;;;;;;;;;5018848;28;20049;-80
2023/08/11 05:52:43;;;;;;;7.22;3.67;;;;;;;;;;5025615;28;20053;-77
2023/08/11 05:55:29;;;;;;;7.63;3.95;;;;;;;;;;5018457;28;20042;-76
2023/08/11 05:58:14;;;;;;;5.15;3.80;;;;;;;;;;5026286;28;20049;-78
2023/08/11 06:01:01;;;;;;;5.30;3.65;;;;;;;;;;5026305;28;20057;-79
2023/08/11 06:03:46;;;;;;;6.40;3.55;;;;;;;;;;5017299;28;20046;-80
2023/08/11 06:06:31;;;;;;;7.05;3.90;;;;;;;;;;5024943;28;20651;-79
2023/08/11 06:09:16;;;;;;;6.80;3.67;;;;;;;;;;5026132;28;20815;-80
2023/08/11 06:12:02;;;;;;;6.00;3.72;;;;;;;;;;5031451;28;20053;-78
2023/08/11 06:14:48;;;;;;;5.60;3.60;;;;;;;;;;5010543;28;20045;-78
2023/08/11 06:17:33;;;;;;;6.93;3.83;;;;;;;;;;5007203;28;20042;-80
2023/08/11 06:20:19;;;;;;;6.72;3.45;;;;;;;;;;5024413;28;20037;-78
2023/08/11 06:23:04;;;;;;;5.75;4.13;;;;;;;;;;5026077;28;20041;-80
2023/08/11 06:25:50;;;;;;;4.68;3.40;;;;;;;;;;5026646;28;20045;-79
2023/08/11 06:28:35;;;;;;;8.90;4.03;;;;;;;;;;5026170;28;20084;-81
2023/08/11 06:31:33;;;;;;;4.90;3.88;;;;;;;;;;5024113;28;20880;-81
2023/08/11 06:34:18;;;;;;;6.10;4.20;;;;;;;;;;5017552;28;20041;-80
2023/08/11 06:37:04;;;;;;;7.13;4.20;;;;;;;;;;5010641;28;20045;-80
2023/08/11 06:39:51;;;;;;;8.40;4.25;;;;;;;;;;5023213;28;20480;-82
2023/08/11 06:42:38;;;;;;;8.70;4.68;;;;;;;;;;5013489;28;20053;-79
2023/08/11 06:45:27;;;;;;;7.90;3.92;;;;;;;;;;5017046;28;20049;-80
2023/08/11 06:48:12;;;;;;;6.93;3.70;;;;;;;;;;5023637;28;20057;-79
2023/08/11 06:50:58;;;;;;;6.32;3.78;;;;;;;;;;5025520;28;20041;-81
2023/08/11 06:53:44;;;;;;;6.45;3.97;;;;;;;;;;5015957;28;20499;-80
2023/08/11 06:56:29;;;;;;;10.52;5.82;;;;;;;;;;5023754;28;20057;-79
2023/08/11 06:59:14;;;;;;;6.95;3.90;;;;;;;;;;5024534;28;20049;-80
2023/08/11 07:02:00;;;;;;;5.07;3.70;;;;;;;;;;5009815;28;20053;-82
2023/08/11 07:04:46;;;;;;;6.72;3.90;;;;;;;;;;5022144;28;20045;-82
2023/08/11 07:07:31;;;;;;;4.95;3.58;;;;;;;;;;5023208;28;20041;-79
2023/08/11 07:10:17;;;;;;;10.73;3.63;;;;;;;;;;5022272;28;20033;-80
2023/08/11 07:13:03;;;;;;;7.15;3.90;;;;;;;;;;5023927;28;20431;-81
2023/08/11 07:15:48;;;;;;;6.13;3.80;;;;;;;;;;5025409;28;20045;-79
2023/08/11 07:18:34;;;;;;;8.93;4.00;;;;;;;;;;5023008;28;20045;-82
2023/08/11 07:21:19;;;;;;;6.32;3.47;;;;;;;;;;5025124;28;20666;-81
2023/08/11 07:24:05;;;;;;;8.82;3.30;;;;;;;;;;5023638;28;20053;-80
2023/08/11 07:26:50;;;;;;;6.53;3.60;;;;;;;;;;5009664;28;20433;-81
2023/08/11 07:29:36;;;;;;;16.23;8.68;;;;;;;;;;5025685;28;20045;-82
2023/08/11 07:32:21;;;;;;;10.50;3.58;;;;;;;;;;5024595;28;20057;-83
2023/08/11 07:35:07;;;;;;;10.00;3.90;;;;;;;;;;5026936;28;20508;-82
2023/08/11 07:37:52;;;;;;;6.13;3.55;;;;;;;;;;5014028;28;20049;-83
2023/08/11 07:40:39;;;;;;;6.47;3.95;;;;;;;;;;5029290;28;20481;-81
2023/08/11 07:43:25;;;;;;;7.13;3.70;;;;;;;;;;5020188;28;20400;-82
2023/08/11 07:46:11;;;;;;;7.60;3.20;;;;;;;;;;5027225;28;20041;-83
2023/08/11 07:48:56;;;;;;;153.20;131.38;;;;;;;;;;5028020;28;20488;-82
2023/08/11 07:51:43;;;;;;;6.53;3.10;;;;;;;;;;5027906;28;20041;-82
2023/08/11 07:54:28;;;;;;;326.10;261.48;;;;;;;;;;5030296;28;20053;-83
2023/08/11 07:57:14;;;;;;;167.75;117.00;;;;;;;;;;5030389;28;20041;-84
2023/08/11 07:59:59;;;;;;;345.45;261.33;;;;;;;;;;5032982;28;20045;-82
2023/08/11 08:02:45;;;;;;;469.08;379.98;;;;;;;;;;5024134;28;20054;-81
2023/08/11 08:05:31;;;;;;;577.10;511.58;;;;;;;;;;5025673;28;20476;-82
2023/08/11 08:08:17;;;;;;;193.45;170.07;;;;;;;;;;5033264;28;20041;-81
2023/08/11 08:11:03;;;;;;;9.45;4.65;;;;;;;;;;5031700;28;20057;-81
2023/08/11 08:13:48;;;;;;;13.88;10.27;;;;;;;;;;5032952;28;20049;-80
2023/08/11 08:16:33;;;;;;;45.47;33.42;;;;;;;;;;5017834;28;20045;-78
2023/08/11 08:19:20;;;;;;;12.27;7.93;;;;;;;;;;5033215;28;20041;-82
2023/08/11 08:22:05;;;;;;;8.38;3.53;;;;;;;;;;5031521;28;20034;-82
2023/08/11 08:24:51;;;;;;;5.65;3.22;;;;;;;;;;5032881;28;20057;-79
2023/08/11 08:27:39;;;;;;;8.90;3.03;;;;;;;;;;5033065;28;20041;-79
2023/08/11 08:30:24;;;;;;;14.55;10.15;;;;;;;;;;5024020;28;20041;-80
2023/08/11 08:33:09;;;;;;;4.70;2.70;;;;;;;;;;5038689;28;20045;-79
2023/08/11 08:35:55;;;;;;;6.07;2.88;;;;;;;;;;5022912;28;20477;-81
2023/08/11 08:38:41;;;;;;;6.13;3.10;;;;;;;;;;5029022;28;20033;-79
2023/08/11 08:41:29;;;;;;;7.32;2.75;;;;;;;;;;5031872;28;20045;-79
2023/08/11 08:44:14;;;;;;;5.35;2.63;;;;;;;;;;5022916;28;20045;-80
2023/08/11 08:47:00;;;;;;;6.15;2.55;;;;;;;;;;5032595;28;20053;-80
2023/08/11 08:49:46;;;;;;;4.00;2.50;;;;;;;;;;5031878;28;20042;-79
2023/08/11 08:52:32;;;;;;;4.38;2.13;;;;;;;;;;5037934;28;20053;-79
2023/08/11 08:55:18;;;;;;;3.83;2.42;;;;;;;;;;5024357;28;20042;-80
2023/08/11 08:58:04;;;;;;;5.93;2.38;;;;;;;;;;5031177;28;20038;-80
2023/08/11 09:00:50;;;;;;;7.45;2.55;;;;;;;;;;5024993;28;20045;-80
2023/08/11 09:03:39;;;;;;;2.97;2.10;;;;;;;;;;5030438;28;20049;-80
2023/08/11 09:06:26;;;;;;;10.00;4.45;;;;;;;;;;5018566;28;20049;-81
2023/08/11 09:09:12;;;;;;;3.65;2.35;;;;;;;;;;5031136;28;20042;-81
2023/08/11 09:11:59;;;;;;;4.35;2.80;;;;;;;;;;5031588;28;20046;-81
2023/08/11 09:14:44;;;;;;;4.75;2.70;;;;;;;;;;5031606;28;20045;-82
2023/08/11 09:17:30;;;;;;;4.82;2.30;;;;;;;;;;5032660;28;20045;-80
2023/08/11 09:20:17;;;;;;;4.78;2.40;;;;;;;;;;5036918;28;20057;-80
2023/08/11 09:23:05;;;;;;;3.13;2.10;;;;;;;;;;5031475;28;20341;-79
2023/08/11 09:25:54;;;;;;;4.88;2.33;;;;;;;;;;5029430;28;20053;-77
2023/08/11 09:28:40;;;;;;;4.25;2.40;;;;;;;;;;5031786;28;20061;-77
2023/08/11 09:31:27;;;;;;;5.18;2.50;;;;;;;;;;5016578;28;20059;-80
2023/08/11 09:34:15;;;;;;;6.68;2.42;;;;;;;;;;5031884;28;20045;-80
2023/08/11 09:37:01;;;;;;;3.47;2.30;;;;;;;;;;5031120;28;20400;-80
2023/08/11 09:39:55;;;;;;;6.43;2.20;;;;;;;;;;5028881;28;20476;-79
2023/08/11 09:42:41;;;;;;;6.50;2.10;;;;;;;;;;5008807;28;20041;-80
2023/08/11 09:45:29;;;;;;;2.75;2.00;;;;;;;;;;5030998;28;20033;-81
2023/08/11 09:48:14;;;;;;;2.85;2.00;;;;;;;;;;5030544;28;20388;-82
2023/08/11 09:51:01;;;;;;;3.55;2.15;;;;;;;;;;5029091;28;20042;-78
2023/08/11 09:53:47;;;;;;;2.17;1.98;;;;;;;;;;5031192;28;20045;-79
2023/08/11 09:56:43;;;;;;;6.72;2.15;;;;;;;;;;5031313;28;20049;-87
2023/08/11 09:59:28;;;;;;;6.53;2.10;;;;;;;;;;5030259;28;20504;-80
2023/08/11 10:02:20;;;;;;;2.55;1.90;;;;;;;;;;5029795;28;20519;-83
2023/08/11 10:05:08;;;;;;;2.70;1.50;;;;;;;;;;5023487;28;20053;-81
2023/08/11 10:07:55;;;;;;;4.53;1.90;;;;;;;;;;5036588;28;20050;-81
2023/08/11 10:10:41;;;;;;;5.22;2.30;;;;;;;;;;5035157;28;20064;-81
2023/08/11 10:13:28;;;;;;;3.17;1.95;;;;;;;;;;5025677;28;20053;-79
2023/08/11 10:16:15;;;;;;;3.03;1.80;;;;;;;;;;5026153;28;20041;-81
2023/08/11 10:19:10;;;;;;;4.45;2.17;;;;;;;;;;5023538;28;20053;-81
2023/08/11 10:21:56;;;;;;;;;;;;;;;;;;5024592;28;20484;-79
2023/08/11 10:24:42;;;;;;;2.95;2.00;;;;;;;;;;5025636;28;20241;-80
2023/08/11 10:27:29;;;;;;;2.20;1.92;;;;;;;;;;5017660;28;20044;-83
2023/08/11 10:30:15;;;;;;;4.30;1.73;;;;;;;;;;5026814;28;20057;-81
2023/08/11 10:33:06;;;;;;;3.30;1.77;;;;;;;;;;5011691;28;20057;-79
2023/08/11 10:35:53;;;;;;;3.15;2.13;;;;;;;;;;5024677;28;20053;-81
2023/08/11 10:38:37;;;;;;;2.28;2.00;;;;;;;;;;5026149;28;20046;-82
2023/08/11 10:41:23;;;;;;;3.63;2.00;;;;;;;;;;5026058;28;20045;-79
2023/08/11 10:44:09;;;;;;;4.70;2.60;;;;;;;;;;5025122;28;20045;-79
2023/08/11 10:46:58;;;;;;;2.88;1.75;;;;;;;;;;5024427;28;20041;-80
2023/08/11 10:49:45;;;;;;;5.25;1.80;;;;;;;;;;5025454;28;20045;-79
2023/08/11 10:52:30;;;;;;;3.38;1.88;;;;;;;;;;5017595;28;20053;-80
2023/08/11 10:55:17;;;;;;;4.55;2.00;;;;;;;;;;5026002;28;20045;-78
2023/08/11 10:58:22;;;;;;;4.90;2.38;;;;;;;;;;5025220;28;20045;-80
2023/08/11 11:01:08;;;;;;;3.20;1.77;;;;;;;;;;5026275;28;20845;-76
2023/08/11 11:03:54;;;;;;;2.47;1.88;;;;;;;;;;5024524;28;20488;-80
2023/08/11 11:06:40;;;;;;;5.68;1.58;;;;;;;;;;5025094;28;20038;-77
2023/08/11 11:09:27;;;;;;;3.55;1.73;;;;;;;;;;5025910;28;20037;-80
2023/08/11 11:12:14;;;;;;;5.18;1.90;;;;;;;;;;5030918;28;20041;-83
2023/08/11 11:15:00;;;;;;;6.05;1.60;;;;;;;;;;5025512;28;20421;-82
2023/08/11 11:17:45;;;;;;;3.80;2.20;;;;;;;;;;5031085;28;20041;-82
2023/08/11 11:20:30;;;;;;;6.32;2.28;;;;;;;;;;5031253;28;20045;-81
2023/08/11 11:23:16;;;;;;;2.42;1.85;;;;;;;;;;5024665;28;20049;-85
2023/08/11 11:26:01;;;;;;;6.55;2.88;;;;;;;;;;5025319;28;20492;-81
2023/08/11 11:28:49;;;;;;;5.45;1.98;;;;;;;;;;5010005;28;20042;-81
2023/08/11 11:31:37;;;;;;;3.08;2.00;;;;;;;;;;5029685;28;20393;-79
2023/08/11 11:34:22;;;;;;;3.00;2.03;;;;;;;;;;5029853;28;20049;-81
2023/08/11 11:37:08;;;;;;;5.07;1.90;;;;;;;;;;5029186;28;20057;-80
2023/08/11 11:39:54;;;;;;;2.75;1.90;;;;;;;;;;5020361;28;20514;-79
2023/08/11 11:42:39;;;;;;;3.95;1.98;;;;;;;;;;5030186;28;20057;-81
2023/08/11 11:45:26;;;;;;;6.72;2.75;;;;;;;;;;5029179;28;20049;-80
2023/08/11 11:48:12;;;;;;;3.10;1.83;;;;;;;;;;5028807;28;20037;-78
2023/08/11 11:50:57;;;;;;;3.97;2.00;;;;;;;;;;5020526;28;20050;-80
2023/08/11 11:53:43;;;;;;;5.75;1.90;;;;;;;;;;5028636;28;20053;-78
2023/08/11 11:56:29;;;;;;;2.75;1.85;;;;;;;;;;5021325;28;20053;-79
2023/08/11 11:59:14;;;;;;;3.53;1.88;;;;;;;;;;5016566;28;20041;-78
2023/08/11 12:02:00;;;;;;;2.92;1.90;;;;;;;;;;5020331;28;20046;-79
2023/08/11 12:04:47;;;;;;;2.38;1.70;;;;;;;;;;5018532;28;20428;-79
2023/08/11 12:07:34;;;;;;;5.82;3.45;;;;;;;;;;5028835;28;20500;-81
2023/08/11 12:10:30;;;;;;;2.10;1.60;;;;;;;;;;5034149;28;20484;-81
2023/08/11 12:13:17;;;;;;;4.05;2.30;;;;;;;;;;5031363;28;20042;-80
2023/08/11 12:16:02;;;;;;;2.95;1.80;;;;;;;;;;5036260;28;20045;-80
2023/08/11 12:18:47;;;;;;;5.18;2.17;;;;;;;;;;5036208;28;20041;-79
2023/08/11 12:21:36;;;;;;;3.15;1.70;;;;;;;;;;5020934;28;20057;-79
2023/08/11 12:24:22;;;;;;;2.33;2.00;;;;;;;;;;5035343;28;20042;-79
2023/08/11 12:27:09;;;;;;;3.28;2.55;;;;;;;;;;5019987;28;20038;-84
2023/08/11 12:29:54;;;;;;;4.30;2.00;;;;;;;;;;5018190;28;20045;-80
2023/08/11 12:32:40;;;;;;;7.63;2.08;;;;;;;;;;5028830;28;20057;-80
2023/08/11 12:35:25;;;;;;;5.93;2.10;;;;;;;;;;5021701;28;20046;-84
2023/08/11 12:38:12;;;;;;;3.03;2.10;;;;;;;;;;5028830;28;20488;-82
2023/08/11 12:40:58;;;;;;;3.10;1.88;;;;;;;;;;5008877;28;20049;-81
2023/08/11 12:43:43;;;;;;;2.72;1.73;;;;;;;;;;5035148;28;20045;-79
2023/08/11 12:46:29;;;;;;;5.75;2.00;;;;;;;;;;5034150;28;20034;-76
2023/08/11 12:49:14;;;;;;;2.72;1.55;;;;;;;;;;5020764;28;20057;-77
2023/08/11 12:51:58;;;;;;;1.75;1.65;;;;;;;;;;5035825;28;20049;-78
2023/08/11 12:54:44;;;;;;;2.50;1.60;;;;;;;;;;5036108;28;20049;-84
2023/08/11 12:57:29;;;;;;;2.70;1.60;;;;;;;;;;5027389;28;20053;-79
2023/08/11 13:00:16;;;;;;;2.88;1.90;;;;;;;;;;5035684;28;20041;-81
2023/08/11 13:03:03;;;;;;;3.15;1.80;;;;;;;;;;5035327;28;20484;-82
2023/08/11 13:05:48;;;;;;;2.90;2.17;;;;;;;;;;5035793;28;20041;-81
2023/08/11 13:08:34;;;;;;;1.83;1.40;;;;;;;;;;5035627;28;20041;-80
2023/08/11 13:11:20;;;;;;;1.95;1.73;;;;;;;;;;5020473;28;20045;-80
2023/08/11 13:14:05;;;;;;;2.70;1.65;;;;;;;;;;5034731;28;20042;-80
2023/08/11 13:16:51;;;;;;;3.90;2.15;;;;;;;;;;5035254;28;20144;-79
2023/08/11 13:19:36;;;;;;;4.07;2.03;;;;;;;;;;5038742;28;20041;-80
2023/08/11 13:22:22;;;;;;;4.72;2.10;;;;;;;;;;5041180;28;20046;-79
2023/08/11 13:25:09;;;;;;;2.65;1.67;;;;;;;;;;5039803;28;20488;-80
2023/08/11 13:27:54;;;;;;;3.75;1.85;;;;;;;;;;5033678;28;20046;-79
2023/08/11 13:30:40;;;;;;;2.67;2.00;;;;;;;;;;5040610;28;20038;-80
2023/08/11 13:33:26;;;;;;;4.38;1.90;;;;;;;;;;5042057;28;20065;-78
2023/08/11 13:36:12;;;;;;;3.15;1.73;;;;;;;;;;5033370;28;20049;-81
2023/08/11 13:38:56;;;;;;;2.97;1.70;;;;;;;;;;5038985;28;20050;-79
2023/08/11 13:41:43;;;;;;;2.25;1.70;;;;;;;;;;5035126;28;20037;-78
2023/08/11 13:44:28;;;;;;;2.00;1.50;;;;;;;;;;5019089;28;20041;-80
2023/08/11 13:47:13;;;;;;;2.05;1.65;;;;;;;;;;5040476;28;20049;-77
2023/08/11 13:49:59;;;;;;;1.98;1.70;;;;;;;;;;5034806;28;20049;-77
2023/08/11 13:52:44;;;;;;;1.77;1.48;;;;;;;;;;5039638;28;20057;-80
2023/08/11 13:55:32;;;;;;;5.35;1.90;;;;;;;;;;5030926;28;20053;-78
2023/08/11 13:58:17;;;;;;;3.97;1.83;;;;;;;;;;5022678;28;20050;-78
2023/08/11 14:01:04;;;;;;;2.28;1.55;;;;;;;;;;5027211;28;20041;-80
2023/08/11 14:03:49;;;;;;;5.57;1.75;;;;;;;;;;5025460;28;20046;-78
2023/08/11 14:06:34;;;;;;;5.60;2.00;;;;;;;;;;5025153;28;20045;-80
2023/08/11 14:09:20;;;;;;;3.50;1.88;;;;;;;;;;5034300;28;20049;-80
2023/08/11 14:12:06;;;;;;;5.43;1.90;;;;;;;;;;5033755;28;20041;-81
2023/08/11 14:14:51;;;;;;;3.50;2.00;;;;;;;;;;5018089;28;20500;-81
2023/08/11 14:17:36;;;;;;;2.90;2.10;;;;;;;;;;5034191;28;20046;-78
2023/08/11 14:20:22;;;;;;;3.60;1.90;;;;;;;;;;5032306;28;20042;-82
2023/08/11 14:23:07;;;;;;;6.70;2.10;;;;;;;;;;5011208;28;20046;-81
2023/08/11 14:25:52;;;;;;;4.70;2.00;;;;;;;;;;5030599;28;20232;-79
2023/08/11 14:28:39;;;;;;;3.17;2.30;;;;;;;;;;5023257;28;20041;-79
2023/08/11 14:31:24;;;;;;;5.07;2.40;;;;;;;;;;5019276;28;20049;-80
2023/08/11 14:34:09;;;;;;;3.53;2.10;;;;;;;;;;5025535;28;20057;-77
2023/08/11 14:36:54;;;;;;;6.25;2.30;;;;;;;;;;5037182;28;20042;-82
2023/08/11 14:39:39;;;;;;;2.88;1.98;;;;;;;;;;5014214;28;20038;-80
2023/08/11 14:42:25;;;;;;;4.32;2.17;;;;;;;;;;5023684;28;20404;-79
2023/08/11 14:45:11;;;;;;;4.68;2.38;;;;;;;;;;5022908;28;20392;-81
2023/08/11 14:47:56;;;;;;;2.85;2.10;;;;;;;;;;5023819;28;20614;-80
2023/08/11 14:50:42;;;;;;;4.07;1.83;;;;;;;;;;5013531;28;20041;-82
2023/08/11 14:53:29;;;;;;;3.42;1.75;;;;;;;;;;5025261;28;20041;-77
2023/08/11 14:56:14;;;;;;;2.17;1.83;;;;;;;;;;5039312;28;20045;-78
2023/08/11 14:58:59;;;;;;;2.35;1.83;;;;;;;;;;5032783;28;20050;-81
2023/08/11 15:01:45;;;;;;;3.25;2.35;;;;;;;;;;5013167;28;20046;-81
2023/08/11 15:04:32;;;;;;;5.90;3.20;;;;;;;;;;5012780;28;20053;-78
2023/08/11 15:07:17;;;;;;;9.93;3.20;;;;;;;;;;5013723;28;20046;-79
2023/08/11 15:10:03;;;;;;;3.33;1.98;;;;;;;;;;5013602;28;20050;-78
2023/08/11 15:12:48;;;;;;;3.00;2.20;;;;;;;;;;5019317;28;20042;-77
2023/08/11 15:15:33;;;;;;;2.38;1.90;;;;;;;;;;5013528;28;20050;-79
2023/08/11 15:18:19;;;;;;;6.28;2.95;;;;;;;;;;5013269;28;20481;-79
2023/08/11 15:21:04;;;;;;;5.32;2.60;;;;;;;;;;5013494;28;20042;-77
2023/08/11 15:23:50;;;;;;;3.83;2.20;;;;;;;;;;5013398;28;20042;-78
2023/08/11 15:26:37;;;;;;;3.22;2.08;;;;;;;;;;5013283;28;20046;-82
2023/08/11 15:29:22;;;;;;;2.40;2.10;;;;;;;;;;5012870;28;20045;-77
2023/08/11 15:32:07;;;;;;;3.15;2.30;;;;;;;;;;5013549;28;20050;-78
2023/08/11 15:34:53;;;;;;;4.82;2.08;;;;;;;;;;5013880;28;20162;-84
2023/08/11 15:37:39;;;;;;;5.30;2.13;;;;;;;;;;5013087;28;20038;-78
2023/08/11 15:40:24;;;;;;;2.33;2.13;;;;;;;;;;5000854;28;20488;-78
2023/08/11 15:43:09;;;;;;;4.57;2.15;;;;;;;;;;5012570;28;20046;-80
2023/08/11 15:45:54;;;;;;;5.95;2.30;;;;;;;;;;5012931;28;20046;-80
2023/08/11 15:48:40;;;;;;;4.22;2.33;;;;;;;;;;5012881;28;20046;-82
2023/08/11 15:51:26;;;;;;;3.47;1.98;;;;;;;;;;5018603;28;20042;-79
2023/08/11 15:54:11;;;;;;;7.63;2.45;;;;;;;;;;5011762;28;20061;-78
2023/08/11 15:56:58;;;;;;;2.63;1.80;;;;;;;;;;5017464;28;20042;-79
2023/08/11 15:59:45;;;;;;;3.25;2.40;;;;;;;;;;5018118;28;20045;-80
2023/08/11 16:02:31;;;;;;;3.00;2.05;;;;;;;;;;5024355;28;20046;-78
2023/08/11 16:05:18;;;;;;;3.60;1.80;;;;;;;;;;5012074;28;20042;-82
2023/08/11 16:08:04;;;;;;;2.67;1.95;;;;;;;;;;5024734;28;20049;-78
2023/08/11 16:10:49;;;;;;;6.65;2.30;;;;;;;;;;5032989;28;20045;-79
2023/08/11 16:13:34;;;;;;;3.97;2.08;;;;;;;;;;5032338;28;20512;-81
2023/08/11 16:16:20;;;;;;;3.83;2.00;;;;;;;;;;5019897;28;20424;-78
2023/08/11 16:19:05;;;;;;;5.80;2.95;;;;;;;;;;5036450;28;20038;-78
2023/08/11 16:21:51;;;;;;;7.88;5.65;;;;;;;;;;5036260;28;20041;-78
2023/08/11 16:24:36;;;;;;;7.18;4.30;;;;;;;;;;5036397;28;20046;-79
2023/08/11 16:27:23;;;;;;;6.00;3.00;;;;;;;;;;5021311;28;20496;-80
2023/08/11 16:30:10;;;;;;;8.00;2.63;;;;;;;;;;5028161;28;20480;-78